Time;durP1;ratioP1;P1;durP2;ratioP2;P2;SDS_P1;SDS_P2;PMS_P1;PMS_P2;Temp;Humidity;BMP_temperature;BMP_pressure;BME280_temperature;BME280_humidity;BME280_pressure;Samples;Min_cycle;Max_cycle;Signal;HPM_P1;HPM_P2
2021/05/29 00:01:48;;;;;;;36.95;23.55;;;;;;;16.45;79.96;99075.97;6065187;23;20121;-81
2021/05/29 00:04:14;;;;;;;36.72;24.65;;;;;;;16.40;79.80;99078.47;6038043;23;20023;-83
2021/05/29 00:06:40;;;;;;;35.80;23.38;;;;;;;16.33;79.93;99077.59;6063917;23;20026;-78
2021/05/29 00:09:06;;;;;;;35.13;23.02;;;;;;;16.30;80.31;99080.72;6063016;23;20039;-79
2021/05/29 00:11:32;;;;;;;37.55;23.42;;;;;;;16.27;80.32;99075.66;6064071;23;20025;-81
2021/05/29 00:13:59;;;;;;;34.72;22.90;;;;;;;16.21;81.00;99085.53;6037560;23;20411;-79
2021/05/29 00:16:25;;;;;;;34.20;23.35;;;;;;;16.13;81.29;99082.97;6061443;23;20445;-78
2021/05/29 00:18:51;;;;;;;43.25;24.60;;;;;;;16.08;81.13;99080.81;5990250;23;20023;-79
2021/05/29 00:21:16;;;;;;;33.60;23.63;;;;;;;16.00;81.28;99078.25;6036727;23;20465;-79
2021/05/29 00:23:43;;;;;;;37.28;22.83;;;;;;;15.94;81.43;99072.75;6060778;23;20384;-78
2021/05/29 00:26:09;;;;;;;36.03;23.90;;;;;;;15.84;81.73;99067.69;6013857;23;20165;-79
2021/05/29 00:28:35;;;;;;;35.38;24.35;;;;;;;15.82;81.99;99075.19;6061190;23;20134;-79
2021/05/29 00:31:05;;;;;;;39.40;24.50;;;;;;;15.79;82.10;99081.03;6062791;23;20027;-79
2021/05/29 00:33:31;;;;;;;39.45;24.63;;;;;;;15.72;82.08;99085.59;6062906;23;20026;-78
2021/05/29 00:35:57;;;;;;;37.58;23.55;;;;;;;15.59;83.08;99081.72;6062703;23;20030;-79
2021/05/29 00:38:23;;;;;;;35.22;22.55;;;;;;;15.59;82.56;99079.00;6061122;23;20054;-79
2021/05/29 00:40:49;;;;;;;34.85;24.38;;;;;;;15.56;82.73;99065.75;6062843;23;20046;-78
2021/05/29 00:43:24;;;;;;;34.78;23.02;;;;;;;15.60;82.77;99067.03;6062453;23;20027;-82
2021/05/29 00:45:50;;;;;;;39.85;24.00;;;;;;;15.56;82.57;99060.31;6062680;23;20038;-79
2021/05/29 00:48:16;;;;;;;40.05;23.67;;;;;;;15.66;82.29;99069.03;6062670;23;20030;-78
2021/05/29 00:50:48;;;;;;;32.78;22.73;;;;;;;15.67;82.22;99070.69;6062642;23;20102;-78
2021/05/29 00:53:16;;;;;;;34.28;23.08;;;;;;;15.70;81.98;99071.34;6062507;23;20078;-78
2021/05/29 00:55:46;;;;;;;34.97;22.98;;;;;;;15.65;82.19;99075.53;6036541;23;20460;-79
2021/05/29 00:58:12;;;;;;;34.63;22.35;;;;;;;15.68;82.20;99074.25;6062326;23;20019;-78
2021/05/29 01:00:38;;;;;;;32.90;23.40;;;;;;;15.67;83.23;99070.69;6062300;23;20022;-78
2021/05/29 01:03:04;;;;;;;42.45;24.63;;;;;;;15.74;83.21;99065.31;6037953;23;20018;-78
2021/05/29 01:05:30;;;;;;;30.48;22.27;;;;;;;15.77;82.28;99061.34;6038873;23;20357;-79
2021/05/29 01:07:56;;;;;;;37.63;24.52;;;;;;;15.77;82.13;99062.19;6063315;23;20082;-80
2021/05/29 01:10:24;;;;;;;37.83;24.02;;;;;;;15.77;82.07;99067.63;6064930;23;20015;-78
2021/05/29 01:12:51;;;;;;;35.63;23.52;;;;;;;15.77;82.01;99067.63;6038731;23;20276;-78
2021/05/29 01:15:18;;;;;;;36.92;22.83;;;;;;;15.77;81.91;99066.78;6015567;23;20023;-80
2021/05/29 01:17:45;;;;;;;38.03;23.27;;;;;;;15.77;81.93;99069.53;6015283;23;20022;-79
2021/05/29 01:20:11;;;;;;;39.25;23.73;;;;;;;15.74;82.04;99067.19;6064954;23;20022;-79
2021/05/29 01:22:47;;;;;;;34.08;23.83;;;;;;;15.81;81.91;99073.53;6040635;23;20097;-78
2021/05/29 01:25:30;;;;;;;33.42;22.80;;;;;;;15.83;82.06;99066.84;6039610;23;20146;-78
2021/05/29 01:28:07;;;;;;;36.80;23.27;;;;;;;15.81;81.85;99057.16;6065780;23;20106;-77
2021/05/29 01:30:43;;;;;;;90.55;28.17;;;;;;;15.83;81.55;99060.53;6038786;23;20030;-79
2021/05/29 01:33:11;;;;;;;77.15;27.65;;;;;;;15.84;81.53;99051.31;6038837;23;20035;-78
2021/05/29 01:35:37;;;;;;;43.88;24.80;;;;;;;15.85;81.43;99039.38;6038513;23;20030;-82
2021/05/29 01:38:03;;;;;;;43.42;23.88;;;;;;;15.84;81.54;99040.44;6039107;23;20023;-79
2021/05/29 01:40:29;;;;;;;41.35;23.45;;;;;;;15.84;81.58;99033.09;6039576;23;20353;-77
2021/05/29 01:42:57;;;;;;;40.50;23.80;;;;;;;15.84;81.90;99026.78;6064712;23;20033;-78
2021/05/29 01:45:25;;;;;;;39.63;22.98;;;;;;;15.87;81.99;99029.13;6038511;23;20330;-77
2021/05/29 01:47:52;;;;;;;44.17;24.00;;;;;;;15.92;81.96;99029.34;6015174;23;20026;-79
2021/05/29 01:50:21;;;;;;;41.40;24.27;;;;;;;15.98;81.65;99031.28;6064657;23;20019;-78
2021/05/29 01:52:51;;;;;;;38.20;23.83;;;;;;;16.07;81.23;99030.06;6082324;23;20026;-80
2021/05/29 01:55:47;;;;;;;40.75;24.60;;;;;;;16.17;81.14;99029.69;6092825;23;20101;-78
2021/05/29 01:58:14;;;;;;;35.85;22.58;;;;;;;16.21;80.80;99019.22;6025284;23;20023;-79
2021/05/29 02:00:40;;;;;;;41.33;23.33;;;;;;;16.23;81.06;99028.03;6038272;23;20074;-78
2021/05/29 02:03:06;;;;;;;36.75;23.08;;;;;;;16.24;80.74;99035.19;6063940;23;20019;-79
2021/05/29 02:05:39;;;;;;;35.15;23.25;;;;;;;16.34;80.46;99041.09;6015079;23;20026;-78
2021/05/29 02:08:09;;;;;;;37.50;24.02;;;;;;;16.41;80.46;99036.50;5993800;23;20030;-78
2021/05/29 02:10:37;;;;;;;39.15;23.20;;;;;;;16.47;80.17;99038.41;6062673;23;20078;-77
2021/05/29 02:13:07;;;;;;;36.08;23.55;;;;;;;16.51;80.29;99036.97;6038277;23;20015;-78
2021/05/29 02:15:35;;;;;;;57.78;35.25;;;;;;;16.51;80.05;99028.78;6038466;23;20458;-78
2021/05/29 02:18:05;;;;;;;41.28;24.80;;;;;;;16.58;80.00;99037.81;6038276;23;20172;-78
2021/05/29 02:20:40;;;;;;;67.68;26.35;;;;;;;16.61;79.83;99037.41;6038238;23;20041;-80
2021/05/29 02:23:07;;;;;;;54.72;24.33;;;;;;;16.63;79.52;99039.94;6038774;23;20042;-80
2021/05/29 02:25:33;;;;;;;33.67;22.80;;;;;;;16.69;79.38;99039.13;6039027;23;20118;-79
2021/05/29 02:27:59;;;;;;;69.05;28.95;;;;;;;16.72;79.26;99035.16;6064227;23;20019;-80
2021/05/29 02:30:26;;;;;;;52.70;25.67;;;;;;;16.80;79.43;99032.25;6063792;23;20509;-77
2021/05/29 02:32:52;;;;;;;41.13;24.48;;;;;;;16.84;78.83;99025.31;6038114;23;20023;-78
2021/05/29 02:35:19;;;;;;;35.33;23.80;;;;;;;16.87;79.00;99025.75;6063550;23;20537;-79
2021/05/29 02:37:45;;;;;;;44.88;24.90;;;;;;;16.88;79.22;99023.84;6047644;23;20346;-79
2021/05/29 02:40:12;;;;;;;38.05;23.52;;;;;;;16.93;78.86;99021.38;6063114;23;20029;-80
2021/05/29 02:42:38;;;;;;;35.90;22.90;;;;;;;16.93;79.00;99018.63;6064109;23;20030;-79
2021/05/29 02:45:05;;;;;;;33.92;21.45;;;;;;;16.96;78.92;99018.19;6061866;23;20019;-78
2021/05/29 02:47:31;;;;;;;36.97;22.92;;;;;;;17.01;78.58;99021.16;6038068;23;20018;-78
2021/05/29 02:49:56;;;;;;;34.83;22.48;;;;;;;16.99;78.01;99012.31;6063548;23;20155;-81
2021/05/29 02:52:22;;;;;;;32.05;22.35;;;;;;;17.06;78.47;99021.38;6062272;23;20023;-80
2021/05/29 02:54:48;;;;;;;35.15;22.02;;;;;;;17.10;78.47;99027.25;6063618;23;20018;-79
2021/05/29 02:57:14;;;;;;;34.20;22.67;;;;;;;17.13;77.99;99012.34;6061904;23;20030;-77
2021/05/29 02:59:40;;;;;;;41.60;31.08;;;;;;;17.15;77.02;99018.41;6062817;23;20050;-78
2021/05/29 03:02:08;;;;;;;36.10;24.23;;;;;;;17.17;75.54;99008.13;6062908;23;20053;-79
2021/05/29 03:04:34;;;;;;;63.05;26.77;;;;;;;17.23;77.07;99001.84;6038658;23;20535;-78
2021/05/29 03:07:01;;;;;;;51.63;25.08;;;;;;;17.30;77.88;99013.63;6064120;23;20051;-79
2021/05/29 03:09:27;;;;;;;42.50;26.08;;;;;;;17.33;78.46;99018.63;6038694;23;20022;-80
2021/05/29 03:11:54;;;;;;;38.50;25.90;;;;;;;17.33;78.37;99007.72;6085548;23;20030;-77
2021/05/29 03:14:20;;;;;;;46.83;28.40;;;;;;;17.41;78.51;99007.50;6037701;23;20023;-78
2021/05/29 03:16:45;;;;;;;39.38;25.05;;;;;;;17.46;77.69;99007.72;6085510;23;20354;-79
2021/05/29 03:19:11;;;;;;;34.97;22.63;;;;;;;17.49;77.57;99007.28;6086058;23;20117;-80
2021/05/29 03:21:37;;;;;;;39.30;23.42;;;;;;;17.51;77.45;99004.34;6061923;23;20101;-78
2021/05/29 03:24:03;;;;;;;43.72;23.30;;;;;;;17.63;76.82;98999.09;6061962;23;20018;-79
2021/05/29 03:26:30;;;;;;;38.67;24.58;;;;;;;17.69;77.12;98996.31;6085455;23;20050;-78
2021/05/29 03:28:59;;;;;;;35.38;23.45;;;;;;;17.76;78.23;98999.06;6062030;23;20070;-78
2021/05/29 03:31:28;;;;;;;44.28;26.52;;;;;;;17.85;76.49;99006.00;6014963;23;20026;-79
2021/05/29 03:33:54;;;;;;;48.00;28.55;;;;;;;17.93;74.88;99002.19;6063357;23;20019;-78
2021/05/29 03:36:20;;;;;;;44.70;27.42;;;;;;;18.00;75.69;99003.03;6061605;23;20026;-79
2021/05/29 03:38:46;;;;;;;49.47;32.42;;;;;;;18.13;71.68;99002.13;6009889;23;20051;-81
2021/05/29 03:41:12;;;;;;;57.70;34.30;;;;;;;18.22;71.34;99004.41;6034765;23;20193;-78
2021/05/29 03:43:38;;;;;;;56.25;33.10;;;;;;;18.32;71.61;99006.69;5986335;23;20031;-80
2021/05/29 03:46:04;;;;;;;46.42;31.38;;;;;;;18.41;72.38;99002.63;6010123;23;20023;-79
2021/05/29 03:48:31;;;;;;;39.05;26.17;;;;;;;18.38;74.72;99005.81;6035257;23;20082;-80
2021/05/29 03:50:57;;;;;;;38.35;25.30;;;;;;;18.50;74.45;99004.09;6035661;23;20050;-80
2021/05/29 03:53:23;;;;;;;42.65;26.00;;;;;;;18.63;73.63;99002.31;6011020;23;20062;-80
2021/05/29 03:55:49;;;;;;;37.92;27.40;;;;;;;18.79;72.99;98999.94;6011994;23;20034;-79
2021/05/29 03:58:15;;;;;;;38.90;27.42;;;;;;;19.20;71.73;98993.09;6033152;23;20019;-79
2021/05/29 04:00:41;;;;;;;41.72;27.48;;;;;;;19.36;70.74;98991.69;6035493;23;20027;-78
2021/05/29 04:03:06;;;;;;;42.10;29.08;;;;;;;19.41;69.64;98994.59;5986501;23;20026;-79
2021/05/29 04:05:32;;;;;;;48.25;31.50;;;;;;;19.56;67.94;98991.50;6034055;23;20022;-79
2021/05/29 04:07:58;;;;;;;48.42;30.58;;;;;;;19.63;68.12;98983.25;6034310;23;20066;-78
2021/05/29 04:10:26;;;;;;;47.38;30.88;;;;;;;19.81;68.32;98993.41;6033944;23;20098;-80
2021/05/29 04:12:53;;;;;;;53.22;34.47;;;;;;;20.09;66.75;98984.66;6008537;23;20027;-79
2021/05/29 04:15:19;;;;;;;54.00;35.55;;;;;;;20.72;64.72;98989.75;6008848;23;20030;-78
2021/05/29 04:17:46;;;;;;;66.00;39.75;;;;;;;21.20;62.70;98986.06;6009465;23;20094;-79
2021/05/29 04:20:14;;;;;;;57.97;37.78;;;;;;;21.33;62.75;98985.88;6009063;23;20019;-79
2021/05/29 04:22:40;;;;;;;58.42;36.40;;;;;;;21.22;62.52;98983.09;6011401;23;20049;-79
2021/05/29 04:25:09;;;;;;;58.03;38.00;;;;;;;21.20;63.12;98981.41;6033914;23;20023;-79
2021/05/29 04:27:35;;;;;;;65.05;37.65;;;;;;;21.21;62.75;98982.25;6009920;23;20050;-80
2021/05/29 04:30:04;;;;;;;64.97;35.45;;;;;;;21.00;63.51;98974.56;6009518;23;20019;-79
2021/05/29 04:32:30;;;;;;;53.83;36.53;;;;;;;21.18;63.55;98978.06;6034510;23;20106;-80
2021/05/29 04:34:56;;;;;;;53.25;36.78;;;;;;;21.38;63.20;98977.75;6013185;23;20115;-80
2021/05/29 04:37:21;;;;;;;57.70;36.90;;;;;;;21.52;62.81;98972.03;6042525;23;20038;-79
2021/05/29 04:39:47;;;;;;;56.20;36.45;;;;;;;21.67;62.06;98962.19;6013413;23;20029;-79
2021/05/29 04:42:13;;;;;;;54.05;34.92;;;;;;;21.76;61.59;98957.19;6043435;23;20051;-81
2021/05/29 04:44:39;;;;;;;51.90;32.80;;;;;;;21.89;60.89;98962.41;6014756;23;20041;-81
2021/05/29 04:47:05;;;;;;;38.35;26.20;;;;;;;21.94;59.83;98960.84;6037977;23;20522;-81
2021/05/29 04:49:31;;;;;;;37.88;26.17;;;;;;;22.00;59.64;98966.22;6037309;23;20045;-79
2021/05/29 04:51:58;;;;;;;26.48;21.13;;;;;;;21.69;58.67;98964.75;6037962;23;20023;-79
2021/05/29 04:54:25;;;;;;;23.48;19.35;;;;;;;21.58;58.90;98954.56;6036946;23;20027;-83
2021/05/29 04:56:51;;;;;;;34.08;24.20;;;;;;;21.66;59.57;98956.97;6011384;23;20035;-78
2021/05/29 04:59:17;;;;;;;31.88;22.77;;;;;;;21.90;57.63;98958.63;6038834;23;20019;-80
2021/05/29 05:01:43;;;;;;;35.03;23.65;;;;;;;22.06;57.81;98957.00;6014603;23;20031;-80
2021/05/29 05:04:09;;;;;;;32.22;23.77;;;;;;;22.18;58.00;98946.00;6014925;23;20019;-79
2021/05/29 05:06:35;;;;;;;29.33;22.25;;;;;;;22.50;57.42;98956.56;6038200;23;20079;-80
2021/05/29 05:09:01;;;;;;;30.38;23.23;;;;;;;22.70;56.96;98950.56;6040035;23;20023;-81
2021/05/29 05:11:27;;;;;;;36.55;21.33;;;;;;;22.64;57.20;98952.41;5989587;23;20119;-80
2021/05/29 05:13:53;;;;;;;38.40;21.75;;;;;;;22.56;56.83;98956.41;6039200;23;20023;-82
2021/05/29 05:16:20;;;;;;;32.33;21.00;;;;;;;22.33;57.29;98957.31;6036522;23;20102;-80
2021/05/29 05:18:46;;;;;;;31.15;18.90;;;;;;;22.28;57.68;98959.97;6038198;23;20102;-80
2021/05/29 05:21:12;;;;;;;39.63;19.92;;;;;;;22.28;57.72;98953.63;6038207;23;20042;-80
2021/05/29 05:23:38;;;;;;;40.80;20.50;;;;;;;22.21;58.29;98951.03;6041359;23;20078;-79
2021/05/29 05:26:06;;;;;;;37.80;20.88;;;;;;;22.17;58.77;98949.84;6039333;23;20097;-79
2021/05/29 05:28:32;;;;;;;37.17;20.92;;;;;;;22.24;57.63;98947.78;6016792;23;20026;-83
2021/05/29 05:31:03;;;;;;;53.75;20.88;;;;;;;22.33;56.15;98935.28;5991625;23;20078;-83
2021/05/29 05:33:40;;;;;;;39.45;17.23;;;;;;;22.36;54.71;98943.06;5988975;23;20047;-81
2021/05/29 05:36:42;;;;;;;39.63;17.23;;;;;;;22.43;54.56;98942.09;6017198;23;20344;-79
2021/05/29 05:39:09;;;;;;;29.88;16.58;;;;;;;22.56;54.02;98933.50;6014036;23;20031;-82
2021/05/29 05:41:38;;;;;;;37.47;18.15;;;;;;;22.80;53.76;98942.50;6012114;23;20036;-83
2021/05/29 05:44:05;;;;;;;111.97;25.95;;;;;;;23.32;52.51;98936.78;6040713;23;20113;-81
2021/05/29 05:46:31;;;;;;;25.60;13.85;;;;;;;23.40;51.50;98941.91;5989447;23;20030;-82
2021/05/29 05:48:57;;;;;;;24.88;14.50;;;;;;;23.38;51.58;98934.94;6015506;23;20031;-80
2021/05/29 05:51:25;;;;;;;26.60;14.52;;;;;;;23.71;49.71;98932.16;6020921;23;20038;-85
2021/05/29 05:53:52;;;;;;;17.35;12.18;;;;;;;24.52;46.74;98928.78;6047724;23;20023;-85
2021/05/29 05:56:26;;;;;;;37.08;17.90;;;;;;;25.79;45.11;98936.53;6001951;23;20066;-86
2021/05/29 05:58:56;;;;;;;23.00;12.27;;;;;;;25.71;44.34;98930.34;6029811;23;20023;-86
2021/05/29 06:01:26;;;;;;;26.65;16.48;;;;;;;25.60;45.91;98927.81;6032502;23;20087;-85
2021/05/29 06:03:53;;;;;;;35.88;21.40;;;;;;;25.27;47.67;98935.31;6025215;23;20023;-83
2021/05/29 06:06:20;;;;;;;34.45;20.63;;;;;;;24.97;48.00;98922.00;6011443;23;20063;-87
2021/05/29 06:08:47;;;;;;;39.75;22.40;;;;;;;24.95;48.28;98929.75;5989415;23;20032;-86
2021/05/29 06:11:14;;;;;;;35.85;23.08;;;;;;;24.94;48.02;98925.34;5984956;23;20027;-84
2021/05/29 06:21:23;;;;;;;42.95;21.65;;;;;;;24.86;50.89;98923.03;6006263;23;20027;-86
2021/05/29 06:23:51;;;;;;;31.90;21.60;;;;;;;24.65;50.26;98922.84;6030291;23;20030;-85
2021/05/29 06:26:20;;;;;;;31.50;22.65;;;;;;;24.48;49.80;98928.47;6027549;23;20023;-83
2021/05/29 06:28:47;;;;;;;34.20;22.20;;;;;;;24.36;49.88;98924.16;6006255;23;20023;-83
2021/05/29 06:31:15;;;;;;;27.55;21.10;;;;;;;24.28;50.91;98929.03;6027110;23;20027;-85
2021/05/29 06:33:43;;;;;;;32.90;22.55;;;;;;;23.96;51.36;98922.56;6052586;23;20029;-83
2021/05/29 06:36:09;;;;;;;47.00;25.88;;;;;;;23.73;53.04;98924.47;6054184;23;20095;-84
2021/05/29 06:38:37;;;;;;;48.45;26.80;;;;;;;23.52;53.62;98931.59;6079342;23;20014;-84
2021/05/29 06:41:05;;;;;;;38.60;25.52;;;;;;;23.38;54.23;98923.91;6080235;23;20022;-86
2021/05/29 06:44:11;;;;;;;;;;;;;;;;;;;;;
2021/05/29 06:46:44;;;;;;;46.00;29.45;;;;;;;23.19;55.48;98923.34;6036047;23;20106;-85
2021/05/29 06:49:47;;;;;;;58.03;28.75;;;;;;;23.08;55.50;98914.06;6055223;23;20049;-84
2021/05/29 06:52:18;;;;;;;45.35;27.08;;;;;;;22.96;55.56;98914.13;6062617;23;20026;-82
2021/05/29 07:00:12;;;;;;;40.67;25.15;;;;;;;22.49;56.83;98921.84;6084906;23;20317;-83
2021/05/29 07:03:45;;;;;;;38.63;24.90;;;;;;;22.33;57.12;98913.25;6083897;23;20022;-84
2021/05/29 07:06:14;;;;;;;39.17;25.58;;;;;;;22.25;57.87;98910.91;5978449;23;20065;-83
2021/05/29 07:08:41;;;;;;;40.75;23.38;;;;;;;22.11;57.57;98910.31;6002784;23;20023;-82
2021/05/29 07:11:08;;;;;;;38.72;22.88;;;;;;;22.01;59.43;98910.13;6035708;23;20015;-88
2021/05/29 07:13:35;;;;;;;38.97;24.63;;;;;;;21.85;59.04;98911.69;6038305;23;20022;-82
2021/05/29 07:16:07;;;;;;;36.33;24.58;;;;;;;21.74;61.26;98908.97;6087221;23;20022;-85
2021/05/29 07:18:46;;;;;;;33.03;22.98;;;;;;;21.61;61.47;98907.31;6033002;23;20078;-83
2021/05/29 07:21:14;;;;;;;38.42;23.30;;;;;;;21.52;61.92;98903.25;6057334;23;20066;-84
2021/05/29 07:23:43;;;;;;;41.30;26.60;;;;;;;21.34;63.36;98905.06;6059375;23;20106;-85
2021/05/29 07:26:11;;;;;;;44.28;26.33;;;;;;;21.20;62.46;98909.09;6035122;23;20021;-83
2021/05/29 07:28:38;;;;;;;40.72;26.40;;;;;;;21.14;64.11;98910.06;6032957;23;20019;-84
2021/05/29 07:31:05;;;;;;;44.25;25.55;;;;;;;21.11;63.54;98905.03;6050166;23;20019;-81
2021/05/29 07:33:34;;;;;;;37.50;25.35;;;;;;;20.97;65.07;98915.41;6054255;23;20035;-85
2021/05/29 07:36:06;;;;;;;36.10;25.15;;;;;;;20.89;66.08;98919.34;6031354;23;20019;-84
2021/05/29 07:38:43;;;;;;;38.95;25.75;;;;;;;20.86;66.25;98917.06;6082893;23;20023;-84
2021/05/29 07:41:09;;;;;;;38.63;26.92;;;;;;;20.77;67.72;98909.38;6020942;23;20102;-85
2021/05/29 07:43:35;;;;;;;41.78;25.67;;;;;;;20.69;68.94;98908.66;6001182;23;20094;-85
2021/05/29 07:46:03;;;;;;;41.63;27.95;;;;;;;20.63;68.33;98914.28;6018387;23;20034;-83
2021/05/29 07:48:33;;;;;;;48.38;28.10;;;;;;;20.59;68.56;98921.31;5999195;23;20071;-83
2021/05/29 07:51:03;;;;;;;43.55;26.67;;;;;;;20.56;66.99;98913.53;6019406;23;20443;-81
2021/05/29 07:53:34;;;;;;;45.95;28.10;;;;;;;20.53;67.31;98924.97;5980401;23;20382;-84
2021/05/29 07:56:12;;;;;;;54.83;28.67;;;;;;;20.53;68.75;98916.75;5981790;23;20075;-85
2021/05/29 07:58:40;;;;;;;56.20;29.67;;;;;;;20.57;69.22;98917.94;5980945;23;20166;-83
2021/05/29 08:01:11;;;;;;;52.63;28.15;;;;;;;20.56;71.63;98910.78;6031875;23;20027;-85
2021/05/29 08:03:38;;;;;;;60.08;29.38;;;;;;;20.56;72.34;98913.53;6006997;23;20115;-85
2021/05/29 08:06:16;;;;;;;53.35;29.15;;;;;;;20.60;73.67;98920.22;6028874;23;20031;-87
2021/05/29 08:08:45;;;;;;;54.20;28.70;;;;;;;20.66;72.95;98913.81;6001414;23;20023;-83
2021/05/29 08:11:21;;;;;;;59.30;29.17;;;;;;;20.71;70.04;98916.69;6027456;23;20007;-84
2021/05/29 08:13:48;;;;;;;54.40;30.33;;;;;;;20.74;73.39;98907.13;6031490;23;20030;-84
2021/05/29 08:16:29;;;;;;;51.15;28.33;;;;;;;20.82;72.58;98912.28;5984346;23;20048;-85
2021/05/29 08:18:55;;;;;;;54.05;29.63;;;;;;;20.84;72.52;98911.00;6030149;23;20038;-83
2021/05/29 08:21:23;;;;;;;52.05;28.75;;;;;;;20.89;70.32;98910.28;5984185;23;20035;-83
2021/05/29 08:24:08;;;;;;;46.22;28.35;;;;;;;21.04;69.34;98909.81;6026281;23;20027;-86
2021/05/29 08:26:40;;;;;;;40.25;27.90;;;;;;;21.03;67.27;98902.66;5983688;23;20023;-84
2021/05/29 08:29:09;;;;;;;42.45;30.48;;;;;;;21.00;69.69;98903.13;6029941;23;20023;-85
2021/05/29 08:31:37;;;;;;;41.28;29.27;;;;;;;20.99;69.28;98907.78;5965476;23;20025;-85
2021/05/29 08:34:07;;;;;;;44.00;29.95;;;;;;;20.83;70.31;98903.78;6005756;23;20027;-85
2021/05/29 08:36:34;;;;;;;47.15;30.75;;;;;;;20.80;71.14;98904.25;6030929;23;20039;-83
2021/05/29 08:39:00;;;;;;;46.30;29.58;;;;;;;20.77;69.13;98902.00;6027804;23;20075;-85
2021/05/29 08:41:27;;;;;;;45.78;28.60;;;;;;;20.80;68.77;98898.78;5980270;23;20035;-86
2021/05/29 08:43:54;;;;;;;45.95;32.15;;;;;;;20.76;71.47;98900.31;5964120;23;20101;-85
2021/05/29 08:46:33;;;;;;;45.55;30.88;;;;;;;20.74;69.54;98907.13;6013678;23;20027;-84
2021/05/29 08:49:10;;;;;;;46.58;30.30;;;;;;;20.64;69.67;98905.78;6035066;23;20124;-86
2021/05/29 08:51:45;;;;;;;47.38;31.13;;;;;;;20.60;70.40;98931.22;6056081;23;20026;-84
2021/05/29 08:56:50;;;;;;;34.30;23.65;;;;;;;20.08;72.12;98917.13;6059629;23;20793;-85
2021/05/29 08:59:17;;;;;;;34.08;22.15;;;;;;;19.91;73.30;98912.25;6093307;23;20078;-83
2021/05/29 09:01:45;;;;;;;25.90;18.98;;;;;;;19.72;71.89;98891.41;6078586;23;20031;-85
2021/05/29 09:04:13;;;;;;;30.23;20.08;;;;;;;19.59;72.67;98875.06;6038495;23;20003;-85
2021/05/29 09:06:44;;;;;;;27.27;19.65;;;;;;;19.49;73.33;98898.38;6058144;23;20023;-84
2021/05/29 09:09:13;;;;;;;30.15;19.20;;;;;;;19.56;74.64;98897.44;6057676;23;20093;-85
2021/05/29 09:11:53;;;;;;;26.45;18.27;;;;;;;19.56;73.25;98897.44;6083034;23;20125;-84
2021/05/29 09:14:32;;;;;;;25.25;17.98;;;;;;;19.65;74.07;98896.97;6086738;23;20093;-83
2021/05/29 09:17:00;;;;;;;23.10;17.98;;;;;;;19.56;74.10;98905.66;6059178;23;20066;-83
2021/05/29 09:19:27;;;;;;;21.90;17.80;;;;;;;19.66;74.07;98901.38;6081416;23;20074;-85
2021/05/29 09:21:55;;;;;;;24.33;16.73;;;;;;;19.59;73.46;98899.75;6032740;23;20082;-83
2021/05/29 09:24:21;;;;;;;22.92;16.55;;;;;;;19.67;74.06;98893.97;6035873;23;20403;-83
2021/05/29 09:26:55;;;;;;;21.52;16.67;;;;;;;19.62;72.86;98899.28;6054150;23;20533;-83
2021/05/29 09:29:29;;;;;;;27.65;16.73;;;;;;;19.74;72.60;98900.22;6077763;23;20038;-82
2021/05/29 09:31:59;;;;;;;21.30;16.20;;;;;;;19.93;72.29;98901.91;6034935;23;20165;-83
2021/05/29 09:34:32;;;;;;;22.08;15.90;;;;;;;20.38;71.92;98896.00;6059667;23;20027;-85
2021/05/29 09:37:23;;;;;;;19.80;14.77;;;;;;;20.86;68.41;98892.34;6036991;23;20050;-84
2021/05/29 09:40:01;;;;;;;19.73;14.45;;;;;;;21.48;66.05;98896.56;6059314;23;20054;-84
2021/05/29 09:42:34;;;;;;;17.05;13.20;;;;;;;21.86;64.56;98896.03;6057505;23;20023;-85
2021/05/29 09:45:30;;;;;;;18.27;12.48;;;;;;;22.00;63.63;98880.06;6034846;23;20067;-85
2021/05/29 09:48:14;;;;;;;16.00;12.63;;;;;;;21.85;64.03;98886.94;6056736;23;20086;-82
2021/05/29 09:50:59;;;;;;;14.57;11.98;;;;;;;21.30;65.03;98881.84;6011623;23;20066;-84
2021/05/29 09:53:29;;;;;;;16.73;12.25;;;;;;;21.38;65.72;98884.25;6085657;23;20466;-84
2021/05/29 09:55:56;;;;;;;16.88;12.38;;;;;;;21.19;65.98;98880.78;6035185;23;20023;-83
2021/05/29 09:58:49;;;;;;;17.00;13.57;;;;;;;20.58;67.61;98884.75;6060551;23;20104;-85
2021/05/29 10:01:46;;;;;;;17.88;13.48;;;;;;;20.12;69.21;98879.94;6055214;23;20067;-85
2021/05/29 10:04:23;;;;;;;16.92;13.48;;;;;;;20.15;68.98;98884.94;6008544;23;20023;-84
2021/05/29 10:07:00;;;;;;;20.50;13.93;;;;;;;20.17;68.79;98866.31;6034129;23;20074;-83
2021/05/29 10:09:27;;;;;;;16.73;13.00;;;;;;;20.03;68.89;98853.84;6057339;23;20091;-85
2021/05/29 10:11:55;;;;;;;17.38;13.95;;;;;;;20.43;67.36;98854.94;6060791;23;20026;-84
2021/05/29 10:14:22;;;;;;;17.40;13.30;;;;;;;20.47;67.72;98860.81;6081747;23;20014;-83
2021/05/29 10:16:49;;;;;;;20.23;14.63;;;;;;;20.57;67.69;98863.03;6057369;23;20466;-84
2021/05/29 10:19:22;;;;;;;16.38;14.13;;;;;;;20.52;67.42;98871.16;6083305;23;20033;-84
2021/05/29 10:21:49;;;;;;;15.77;11.80;;;;;;;20.39;67.09;98870.22;6055218;23;20038;-82
2021/05/29 10:24:21;;;;;;;13.88;10.90;;;;;;;20.17;67.47;98867.16;6083722;23;20255;-85
2021/05/29 10:26:56;;;;;;;19.92;11.85;;;;;;;20.18;67.34;98852.38;6034499;23;20383;-83
2021/05/29 10:29:27;;;;;;;16.50;12.27;;;;;;;20.30;66.55;98849.69;6055469;23;20047;-84
2021/05/29 10:32:32;;;;;;;15.48;10.52;;;;;;;20.32;66.39;98853.00;6038270;23;20023;-84
2021/05/29 10:35:06;;;;;;;12.68;10.57;;;;;;;19.85;67.18;98841.84;6062845;23;20316;-84
2021/05/29 10:37:48;;;;;;;13.77;10.23;;;;;;;19.82;67.53;98841.47;6059580;23;20007;-83
2021/05/29 10:40:30;;;;;;;18.63;11.05;;;;;;;20.02;67.48;98833.00;6035723;23;20045;-82
2021/05/29 10:43:35;;;;;;;11.98;9.57;;;;;;;20.09;66.40;98847.44;6008285;23;20086;-83
2021/05/29 10:46:08;;;;;;;11.48;9.52;;;;;;;19.96;66.43;98854.81;6075197;23;20019;-85
2021/05/29 10:48:49;;;;;;;29.80;11.25;;;;;;;20.21;66.02;98856.56;6055038;23;20022;-84
2021/05/29 10:51:18;;;;;;;20.40;10.65;;;;;;;20.04;66.44;98855.53;6059278;23;20014;-84
2021/05/29 10:53:48;;;;;;;14.50;9.85;;;;;;;20.13;65.83;98851.41;6040972;23;20025;-87
2021/05/29 10:56:17;;;;;;;19.23;10.35;;;;;;;20.28;65.30;98843.56;6017114;23;20022;-86
2021/05/29 10:59:12;;;;;;;13.48;9.13;;;;;;;20.26;65.08;98836.63;6038986;23;20023;-86
2021/05/29 11:01:53;;;;;;;18.02;9.15;;;;;;;20.16;64.60;98843.53;6039185;23;20053;-84
2021/05/29 11:04:24;;;;;;;12.68;8.75;;;;;;;20.17;64.96;98836.13;6065913;23;20005;-84
2021/05/29 11:07:10;;;;;;;10.63;8.25;;;;;;;19.76;65.92;98843.25;6072302;23;20010;-85
2021/05/29 11:10:11;;;;;;;16.48;8.30;;;;;;;19.58;66.45;98845.97;6068254;23;20022;-85
2021/05/29 11:12:52;;;;;;;33.97;10.13;;;;;;;19.52;67.42;98843.09;6045656;23;20039;-86
2021/05/29 11:21:34;;;;;;;18.80;9.27;;;;;;;19.26;66.74;98859.81;6062642;23;20070;-86
2021/05/29 11:24:18;;;;;;;20.02;9.50;;;;;;;19.13;67.11;98852.59;6060960;23;20023;-87
2021/05/29 11:26:48;;;;;;;25.85;9.40;;;;;;;19.22;67.45;98859.44;5965877;23;20007;31
2021/05/29 11:29:16;;;;;;;12.75;8.25;;;;;;;18.93;67.65;98866.44;5997247;23;20036;-85
2021/05/29 11:31:50;;;;;;;11.25;8.13;;;;;;;19.04;67.24;98862.13;6032997;23;20015;-85
2021/05/29 11:34:20;;;;;;;9.55;8.18;;;;;;;18.81;68.01;98884.69;6042609;23;20042;-85
2021/05/29 11:39:52;;;;;;;18.23;8.75;;;;;;;18.42;69.07;98869.38;6102688;23;20078;-87
2021/05/29 11:48:40;;;;;;;12.93;8.45;;;;;;;17.75;71.26;98863.41;6038656;23;20777;-84
2021/05/29 11:58:01;;;;;;;9.65;7.95;;;;;;;17.51;72.44;98863.06;6090735;23;20274;-85
2021/05/29 12:00:34;;;;;;;12.43;8.52;;;;;;;17.44;73.48;98878.66;6036018;23;20062;-86
2021/05/29 12:03:05;;;;;;;11.52;8.88;;;;;;;17.19;73.91;98881.25;6081714;23;20047;-85
2021/05/29 12:05:40;;;;;;;10.77;8.43;;;;;;;17.16;73.74;98889.84;6047456;23;20018;-83
2021/05/29 12:08:07;;;;;;;11.55;9.07;;;;;;;17.01;74.19;98895.53;6068491;23;20022;-86
2021/05/29 12:10:48;;;;;;;10.57;9.02;;;;;;;16.88;74.45;98912.75;6046799;23;20050;-84
2021/05/29 12:13:30;;;;;;;12.52;8.75;;;;;;;16.81;74.26;98916.53;6071170;23;20006;-85